West Chicago, IL (60185)

02:54 AM CDT die 26o April, anno 2017 (GMT -0500)
West Chicago (Jel Sert) | | Change Station

Elev 774 ft 41.88 °N, 88.20 °W | Updated 14 seconds ago

Clear
Serena
66.4 °F
Feels Like 66.4 °F
N
8.1
Ventus Variabilis Ventus from Auster
Gusts 12.0 mph

Hodie
High -- | Low -- °F
--% Chance of Precip.
Yesterday
High -- | Low -- °F
Precip. -- in
Pressio 29.48 in
Visibilitas 10.0 milia passuum
Clouds Serena
Frigus in quo Ros apparet 56 °F
Umor 69%
Rainfall 0.00 in
Snow Depth Not available.
5:55 AM 7:46 PM
Waning Crescent, 0% visible
METAR KDPA 260752Z 17010KT 10SM CLR 18/13 A2949 RMK AO2 SLP981 T01830133
Pressio 29.48 in
Visibilitas 10.0 milia passuum
Clouds Serena
Frigus in quo Ros apparet 56 °F
Umor 69%
Rainfall 0.00 in
Snow Depth Not available.
5:55 AM 7:46 PM
Waning Crescent, 0% visible
METAR KDPA 260752Z 17010KT 10SM CLR 18/13 A2949 RMK AO2 SLP981 T01830133

Get Severe Weather Alerts

Thanks for signing up!

Be on the lookout for a verification email in your inbox.

You'll start receiving the daily forecast at 8 AM.

×

10-Day Weather Forecast

Almanac

Astronomy

Apr. 26, 2017 Rise Set
Actual Time
Civil Twilight
Nautical Twilight
Astronomical Twilight
Moon
Length Of Visible Light
Length of Day
Tomorrow will be .
, % of the Moon is Illuminated

Today's Extremes

State Highs State Lows

Community

WunderPhotos

WunderBlog® & News

Nearby

Air Quality

  Air Quality AQ Index Pollutant
Not available.

Snow Depth

Station Depth Elevation

Earthquake Activity

City Distance Mag. Time & Date
Minimum magnitude displayed is 2.5.

Coastal Water Temperatures

Locus Calor

Stations

Nearby Weather Stations

Station Location Temp Frigus Venti Frigus in quo Ros apparet Umor Ventus Precip. Elev Renovata Type
                   

Watches & Warnings

There are currently no watches in effect.